createdAt,value
2023-04-22T00:00:28.142Z,13.27
2023-04-22T00:01:28.138Z,13.21
2023-04-22T00:02:28.175Z,13.17
2023-04-22T00:03:28.248Z,13.12
2023-04-22T00:04:28.337Z,13.13
2023-04-22T00:05:28.145Z,13.07
2023-04-22T00:06:28.090Z,13.09
2023-04-22T00:07:28.099Z,13.12
2023-04-22T00:08:28.051Z,13.04
2023-04-22T00:09:28.042Z,13.04
2023-04-22T00:10:28.034Z,13.07
2023-04-22T00:11:28.020Z,13.06
2023-04-22T00:12:28.023Z,12.98
2023-04-22T00:13:28.004Z,12.95
2023-04-22T00:14:27.986Z,12.91
2023-04-22T00:15:27.992Z,12.89
2023-04-22T00:16:28.005Z,12.89
2023-04-22T00:17:28.039Z,12.87
2023-04-22T00:18:27.941Z,12.92
2023-04-22T00:19:27.927Z,12.88
2023-04-22T00:20:27.917Z,12.85
2023-04-22T00:21:27.907Z,12.81
2023-04-22T00:22:27.900Z,12.85
2023-04-22T00:23:27.910Z,12.88
2023-04-22T00:24:27.879Z,12.81
2023-04-22T00:25:27.872Z,12.84
2023-04-22T00:26:27.852Z,12.74
2023-04-22T00:27:27.851Z,12.73
2023-04-22T00:28:27.823Z,12.76
2023-04-22T00:29:27.839Z,12.71
2023-04-22T00:30:27.804Z,12.73
2023-04-22T00:31:27.832Z,12.74
2023-04-22T00:32:27.822Z,12.77
2023-04-22T00:33:27.777Z,12.69
2023-04-22T00:34:27.754Z,12.66
2023-04-22T00:35:27.754Z,12.66
2023-04-22T00:36:27.738Z,12.62
2023-04-22T00:37:27.723Z,12.62
2023-04-22T00:38:27.715Z,12.59
2023-04-22T00:39:27.729Z,12.55
2023-04-22T00:40:27.700Z,12.54
2023-04-22T00:41:27.686Z,12.46
2023-04-22T00:42:27.679Z,12.49
2023-04-22T00:43:27.654Z,12.54
2023-04-22T00:44:27.644Z,12.55
2023-04-22T00:45:27.639Z,12.56
2023-04-22T00:46:27.711Z,12.52
2023-04-22T00:47:27.641Z,12.52
2023-04-22T00:48:28.983Z,12.52
2023-04-22T00:49:27.586Z,12.52
2023-04-22T00:50:27.573Z,12.48
2023-04-22T00:51:27.568Z,12.44
2023-04-22T00:52:27.552Z,12.48
2023-04-22T00:53:27.544Z,12.43
2023-04-22T00:54:27.532Z,12.40
2023-04-22T00:55:27.551Z,12.38
2023-04-22T00:56:27.507Z,12.40
2023-04-22T00:57:27.500Z,12.36
2023-04-22T00:58:27.485Z,12.38
2023-04-22T00:59:27.472Z,12.36
2023-04-22T01:00:27.580Z,12.33
2023-04-22T01:01:27.560Z,12.37
2023-04-22T01:02:27.600Z,12.34
2023-04-22T01:03:27.562Z,12.30
2023-04-22T01:04:27.461Z,12.26
2023-04-22T01:05:27.408Z,12.22
2023-04-22T01:06:27.397Z,12.22
2023-04-22T01:07:27.383Z,12.23
2023-04-22T01:08:27.376Z,12.30
2023-04-22T01:09:27.368Z,12.30
2023-04-22T01:10:27.353Z,12.29
2023-04-22T01:11:27.367Z,12.25
2023-04-22T01:12:27.342Z,12.25
2023-04-22T01:13:27.318Z,12.26
2023-04-22T01:14:27.326Z,12.21
2023-04-22T01:15:27.311Z,12.23
2023-04-22T01:16:27.297Z,12.25
2023-04-22T01:17:27.320Z,12.25
2023-04-22T01:18:27.263Z,12.19
2023-04-22T01:19:27.257Z,12.15
2023-04-22T01:20:27.388Z,12.11
2023-04-22T01:21:27.235Z,12.11
2023-04-22T01:22:27.215Z,12.04
2023-04-22T01:23:27.216Z,12.08
2023-04-22T01:24:27.192Z,12.11
2023-04-22T01:25:27.193Z,12.08
2023-04-22T01:26:27.173Z,12.07
2023-04-22T01:27:27.186Z,12.08
2023-04-22T01:28:27.149Z,12.04
2023-04-22T01:29:27.143Z,12.01
2023-04-22T01:30:27.128Z,11.98
2023-04-22T01:31:27.138Z,12.03
2023-04-22T01:32:27.169Z,12.01
2023-04-22T01:33:27.101Z,11.98
2023-04-22T01:34:27.110Z,11.96
2023-04-22T01:35:27.074Z,11.97
2023-04-22T01:36:27.071Z,11.97
2023-04-22T01:37:27.056Z,11.97
2023-04-22T01:38:27.038Z,11.97
2023-04-22T01:39:27.031Z,11.94
2023-04-22T01:40:27.026Z,11.96
2023-04-22T01:41:27.006Z,11.98
2023-04-22T01:42:27.021Z,11.97
2023-04-22T01:43:27.006Z,11.97
2023-04-22T01:44:26.981Z,11.88
2023-04-22T01:45:26.969Z,11.81
2023-04-22T01:46:26.979Z,11.74
2023-04-22T01:47:26.944Z,11.64
2023-04-22T01:48:26.931Z,11.60
2023-04-22T01:49:26.916Z,11.56
2023-04-22T01:50:26.909Z,11.54
2023-04-22T01:51:26.894Z,11.56
2023-04-22T01:52:26.884Z,11.56
2023-04-22T01:53:26.880Z,11.46
2023-04-22T01:54:26.860Z,11.42
2023-04-22T01:55:26.847Z,11.41
2023-04-22T01:56:26.841Z,11.41
2023-04-22T01:57:26.839Z,11.36
2023-04-22T01:58:26.816Z,11.36
2023-04-22T01:59:26.829Z,11.38
2023-04-22T02:00:26.792Z,11.35
2023-04-22T02:01:26.862Z,11.38
2023-04-22T02:02:26.865Z,11.31
2023-04-22T02:03:26.880Z,11.33
2023-04-22T02:04:26.818Z,11.33
2023-04-22T02:05:26.732Z,11.35
2023-04-22T02:06:26.726Z,11.36
2023-04-22T02:07:26.713Z,11.38
2023-04-22T02:08:26.717Z,11.42
2023-04-22T02:09:26.690Z,11.44
2023-04-22T02:10:26.694Z,11.44
2023-04-22T02:11:26.675Z,11.44
2023-04-22T02:12:26.661Z,11.41
2023-04-22T02:13:26.644Z,11.39
2023-04-22T02:14:26.639Z,11.38
2023-04-22T02:15:26.658Z,11.33
2023-04-22T02:16:26.748Z,11.38
2023-04-22T02:17:26.616Z,11.38
2023-04-22T02:18:26.604Z,11.41
2023-04-22T02:19:26.630Z,11.38
2023-04-22T02:20:26.566Z,11.38
2023-04-22T02:21:26.557Z,11.39
2023-04-22T02:22:26.547Z,11.53
2023-04-22T02:23:26.556Z,11.54
2023-04-22T02:24:26.525Z,11.56
2023-04-22T02:25:26.513Z,11.56
2023-04-22T02:26:26.505Z,11.56
2023-04-22T02:27:26.504Z,11.49
2023-04-22T02:28:26.479Z,11.45
2023-04-22T02:29:26.465Z,11.44
2023-04-22T02:30:26.456Z,11.39
2023-04-22T02:31:26.541Z,11.39
2023-04-22T02:32:26.438Z,11.35
2023-04-22T02:33:26.442Z,11.35
2023-04-22T02:34:26.412Z,11.35
2023-04-22T02:35:26.396Z,11.31
2023-04-22T02:36:26.392Z,11.30
2023-04-22T02:37:26.380Z,11.31
2023-04-22T02:38:26.377Z,11.36
2023-04-22T02:39:26.353Z,11.35
2023-04-22T02:40:26.351Z,11.33
2023-04-22T02:41:26.343Z,11.27
2023-04-22T02:42:26.355Z,11.26
2023-04-22T02:43:26.464Z,11.21
2023-04-22T02:44:26.303Z,11.19
2023-04-22T02:45:26.287Z,11.20
2023-04-22T02:46:26.365Z,11.23
2023-04-22T02:47:26.312Z,11.23
2023-04-22T02:48:26.252Z,11.23
2023-04-22T02:49:26.246Z,11.19
2023-04-22T02:50:26.243Z,11.19
2023-04-22T02:51:26.225Z,11.17
2023-04-22T02:52:26.208Z,11.17
2023-04-22T02:53:26.199Z,11.16
2023-04-22T02:54:26.197Z,11.09
2023-04-22T02:55:26.181Z,11.05
2023-04-22T02:56:26.169Z,11.03
2023-04-22T02:57:26.153Z,11.01
2023-04-22T02:58:26.160Z,10.99
2023-04-22T02:59:26.140Z,11.02
2023-04-22T03:00:26.144Z,10.98
2023-04-22T03:01:26.329Z,11.01
2023-04-22T03:02:26.254Z,10.95
2023-04-22T03:03:26.358Z,11.01
2023-04-22T03:04:26.414Z,10.95
2023-04-22T03:05:26.229Z,10.98
2023-04-22T03:06:26.224Z,11.06
2023-04-22T03:07:26.049Z,11.06
2023-04-22T03:08:26.041Z,11.06
2023-04-22T03:09:26.019Z,11.08
2023-04-22T03:10:26.014Z,11.09
2023-04-22T03:11:25.999Z,11.05
2023-04-22T03:12:25.991Z,11.02
2023-04-22T03:13:25.972Z,10.95
2023-04-22T03:14:25.968Z,10.88
2023-04-22T03:15:25.951Z,10.88
2023-04-22T03:16:25.993Z,10.81
2023-04-22T03:17:25.992Z,10.86
2023-04-22T03:18:25.920Z,10.90
2023-04-22T03:19:25.932Z,10.93
2023-04-22T03:20:25.909Z,10.90
2023-04-22T03:21:25.889Z,10.91
2023-04-22T03:22:25.880Z,10.93
2023-04-22T03:23:25.873Z,10.91
2023-04-22T03:24:25.860Z,10.87
2023-04-22T03:25:25.842Z,10.83
2023-04-22T03:26:25.831Z,10.81
2023-04-22T03:27:25.820Z,10.83
2023-04-22T03:28:25.810Z,10.91
2023-04-22T03:29:25.792Z,10.93
2023-04-22T03:30:25.786Z,10.94
2023-04-22T03:31:25.794Z,10.91
2023-04-22T03:32:25.766Z,10.94
2023-04-22T03:33:25.783Z,10.90
2023-04-22T03:34:25.742Z,10.88
2023-04-22T03:35:25.753Z,10.87
2023-04-22T03:36:25.719Z,10.87
2023-04-22T03:37:25.713Z,10.83
2023-04-22T03:38:25.696Z,10.84
2023-04-22T03:39:25.691Z,10.80
2023-04-22T03:40:25.678Z,10.83
2023-04-22T03:41:25.663Z,10.83
2023-04-22T03:42:25.663Z,10.83
2023-04-22T03:43:25.643Z,10.83
2023-04-22T03:44:25.632Z,10.87
2023-04-22T03:45:25.624Z,10.87
2023-04-22T03:46:25.699Z,10.87
2023-04-22T03:47:25.647Z,10.90
2023-04-22T03:48:25.590Z,10.90
2023-04-22T03:49:25.575Z,10.86
2023-04-22T03:50:25.568Z,10.87
2023-04-22T03:51:25.574Z,10.86
2023-04-22T03:52:25.543Z,10.90
2023-04-22T03:53:25.531Z,10.93
2023-04-22T03:54:25.520Z,10.91
2023-04-22T03:55:25.517Z,10.90
2023-04-22T03:56:25.497Z,10.95
2023-04-22T03:57:25.480Z,11.08
2023-04-22T03:58:25.483Z,11.09
2023-04-22T03:59:25.461Z,11.12
2023-04-22T04:00:25.453Z,11.17
2023-04-22T04:01:25.452Z,11.12
2023-04-22T04:02:25.590Z,11.20
2023-04-22T04:03:27.833Z,11.23
2023-04-22T04:04:25.545Z,11.26
2023-04-22T04:05:25.517Z,11.23
2023-04-22T04:06:25.387Z,11.20
2023-04-22T04:07:25.394Z,11.19
2023-04-22T04:08:25.361Z,11.17
2023-04-22T04:09:25.351Z,11.16
2023-04-22T04:10:25.355Z,11.09
2023-04-22T04:11:25.326Z,11.08
2023-04-22T04:12:25.314Z,11.13
2023-04-22T04:13:25.302Z,11.09
2023-04-22T04:14:25.296Z,11.09
2023-04-22T04:15:25.292Z,11.08
2023-04-22T04:16:25.313Z,11.06
2023-04-22T04:17:25.289Z,11.08
2023-04-22T04:18:25.253Z,11.08
2023-04-22T04:19:25.239Z,11.05
2023-04-22T04:20:25.224Z,11.08
2023-04-22T04:21:25.223Z,11.06
2023-04-22T04:22:25.205Z,11.06
2023-04-22T04:23:25.216Z,11.05
2023-04-22T04:24:25.187Z,11.06
2023-04-22T04:25:25.169Z,11.03
2023-04-22T04:26:25.160Z,11.09
2023-04-22T04:27:25.147Z,11.08
2023-04-22T04:28:25.135Z,11.08
2023-04-22T04:29:25.130Z,11.03
2023-04-22T04:30:25.113Z,11.03
2023-04-22T04:31:25.168Z,11.01
2023-04-22T04:32:25.164Z,10.93
2023-04-22T04:33:25.085Z,10.93
2023-04-22T04:34:25.068Z,10.87
2023-04-22T04:35:25.056Z,10.84
2023-04-22T04:36:25.045Z,10.84
2023-04-22T04:37:25.036Z,10.80
2023-04-22T04:38:25.031Z,10.81
2023-04-22T04:39:25.031Z,10.84
2023-04-22T04:40:24.998Z,10.84
2023-04-22T04:41:24.988Z,10.83
2023-04-22T04:42:24.975Z,10.81
2023-04-22T04:43:24.973Z,10.76
2023-04-22T04:44:24.955Z,10.70
2023-04-22T04:45:24.939Z,10.65
2023-04-22T04:46:24.998Z,10.65
2023-04-22T04:47:24.927Z,10.62
2023-04-22T04:48:24.933Z,10.58
2023-04-22T04:49:24.900Z,10.57
2023-04-22T04:50:24.886Z,10.57
2023-04-22T04:51:24.870Z,10.54
2023-04-22T04:52:24.861Z,10.52
2023-04-22T04:53:24.867Z,10.54
2023-04-22T04:54:24.858Z,10.57
2023-04-22T04:55:24.851Z,10.60
2023-04-22T04:56:25.055Z,10.58
2023-04-22T04:57:25.087Z,10.63
2023-04-22T04:58:24.797Z,10.70
2023-04-22T04:59:24.786Z,10.73
2023-04-22T05:00:24.792Z,10.78
2023-04-22T05:01:24.840Z,10.80
2023-04-22T05:02:25.128Z,10.87
2023-04-22T05:03:25.053Z,10.84
2023-04-22T05:04:24.923Z,10.87
2023-04-22T05:05:24.919Z,10.87
2023-04-22T05:06:25.484Z,10.87
2023-04-22T05:07:24.704Z,10.90
2023-04-22T05:08:24.911Z,10.93
2023-04-22T05:09:24.673Z,10.98
2023-04-22T05:10:24.709Z,11.03
2023-04-22T05:11:24.703Z,11.12
2023-04-22T05:12:24.806Z,11.26
2023-04-22T05:13:24.781Z,11.35
2023-04-22T05:14:24.740Z,11.56
2023-04-22T05:15:24.605Z,11.69
2023-04-22T05:16:24.662Z,11.87
2023-04-22T05:17:24.611Z,12.04
2023-04-22T05:18:24.576Z,12.18
2023-04-22T05:19:24.563Z,12.31
2023-04-22T05:20:24.636Z,12.44
2023-04-22T05:21:24.627Z,12.55
2023-04-22T05:22:24.538Z,12.63
2023-04-22T05:23:24.538Z,12.79
2023-04-22T05:24:24.522Z,12.88
2023-04-22T05:25:24.497Z,13.01
2023-04-22T05:26:24.499Z,13.10
2023-04-22T05:27:24.496Z,13.25
2023-04-22T05:28:24.462Z,13.36
2023-04-22T05:29:24.465Z,13.53
2023-04-22T05:30:24.442Z,13.68
2023-04-22T05:31:24.495Z,13.93
2023-04-22T05:32:24.717Z,14.12
2023-04-22T05:33:24.417Z,14.31
2023-04-22T05:34:24.399Z,14.56
2023-04-22T05:35:24.421Z,14.93
2023-04-22T05:36:24.377Z,15.07
2023-04-22T05:37:24.366Z,15.48
2023-04-22T05:38:24.374Z,15.84
2023-04-22T05:39:24.342Z,15.91
2023-04-22T05:40:24.328Z,15.96
2023-04-22T05:41:24.317Z,15.77
2023-04-22T05:42:24.309Z,15.46
2023-04-22T05:43:24.377Z,15.30
2023-04-22T05:44:24.376Z,15.34
2023-04-22T05:45:24.273Z,15.20
2023-04-22T05:46:24.386Z,15.25
2023-04-22T05:47:24.291Z,15.09
2023-04-22T05:48:24.260Z,14.97
2023-04-22T05:49:24.261Z,14.87
2023-04-22T05:50:24.218Z,14.90
2023-04-22T05:51:24.204Z,14.87
2023-04-22T05:52:24.198Z,15.12
2023-04-22T05:53:24.185Z,15.22
2023-04-22T05:54:24.175Z,15.04
2023-04-22T05:55:24.174Z,14.91
2023-04-22T05:56:24.161Z,14.74
2023-04-22T05:57:24.143Z,14.59
2023-04-22T05:58:24.139Z,14.49
2023-04-22T05:59:24.137Z,14.44
2023-04-22T06:00:24.102Z,14.45
2023-04-22T06:01:24.682Z,14.46
2023-04-22T06:02:24.216Z,14.38
2023-04-22T06:03:24.414Z,14.39
2023-04-22T06:04:24.571Z,14.56
2023-04-22T06:05:24.157Z,14.67
2023-04-22T06:06:24.045Z,14.78
2023-04-22T06:07:24.057Z,14.94
2023-04-22T06:08:24.015Z,15.09
2023-04-22T06:09:24.005Z,15.25
2023-04-22T06:10:23.995Z,15.44
2023-04-22T06:11:23.979Z,15.71
2023-04-22T06:12:23.977Z,16.08
2023-04-22T06:13:23.960Z,16.32
2023-04-22T06:14:23.944Z,16.51
2023-04-22T06:15:23.956Z,16.40
2023-04-22T06:16:23.926Z,16.29
2023-04-22T06:17:23.923Z,15.95
2023-04-22T06:18:23.995Z,15.81
2023-04-22T06:19:23.903Z,15.85
2023-04-22T06:20:23.880Z,15.74
2023-04-22T06:21:23.870Z,15.67
2023-04-22T06:22:23.857Z,15.48
2023-04-22T06:23:23.860Z,15.48
2023-04-22T06:24:23.839Z,15.41
2023-04-22T06:25:23.825Z,15.35
2023-04-22T06:26:23.812Z,15.33
2023-04-22T06:27:23.812Z,15.33
2023-04-22T06:28:23.796Z,15.25
2023-04-22T06:29:23.811Z,15.25
2023-04-22T06:30:23.787Z,15.28
2023-04-22T06:31:23.840Z,15.25
2023-04-22T06:32:23.743Z,15.25
2023-04-22T06:33:23.735Z,15.25
2023-04-22T06:34:23.749Z,15.23
2023-04-22T06:35:23.709Z,15.19
2023-04-22T06:36:23.697Z,15.16
2023-04-22T06:37:23.698Z,15.13
2023-04-22T06:38:23.679Z,15.19
2023-04-22T06:39:23.666Z,15.25
2023-04-22T06:40:23.672Z,15.33
2023-04-22T06:41:23.694Z,15.37
2023-04-22T06:42:23.628Z,15.43
2023-04-22T06:43:23.617Z,15.46
2023-04-22T06:44:23.607Z,15.44
2023-04-22T06:45:23.601Z,15.43
2023-04-22T06:46:23.648Z,15.48
2023-04-22T06:47:23.642Z,15.49
2023-04-22T06:48:23.567Z,15.46
2023-04-22T06:49:23.560Z,15.37
2023-04-22T06:50:23.551Z,15.35
2023-04-22T06:51:23.536Z,15.38
2023-04-22T06:52:24.245Z,15.44
2023-04-22T06:53:23.514Z,15.56
2023-04-22T06:54:23.495Z,15.58
2023-04-22T06:55:23.491Z,15.53
2023-04-22T06:56:23.471Z,15.68
2023-04-22T06:57:23.463Z,15.64
2023-04-22T06:58:23.453Z,15.74
2023-04-22T06:59:23.943Z,15.76
2023-04-22T07:00:23.430Z,15.77
2023-04-22T07:01:23.447Z,15.74
2023-04-22T07:02:23.450Z,15.76
2023-04-22T07:03:23.740Z,15.78
2023-04-22T07:04:23.478Z,15.71
2023-04-22T07:05:23.373Z,15.78
2023-04-22T07:06:23.363Z,15.86
2023-04-22T07:07:23.348Z,15.96
2023-04-22T07:08:23.351Z,15.93
2023-04-22T07:09:23.327Z,15.89
2023-04-22T07:10:23.312Z,16.04
2023-04-22T07:11:23.307Z,15.99
2023-04-22T07:12:23.307Z,16.07
2023-04-22T07:13:23.284Z,16.04
2023-04-22T07:14:23.297Z,16.16
2023-04-22T07:15:23.330Z,16.11
2023-04-22T07:16:23.291Z,16.16
2023-04-22T07:17:23.276Z,16.40
2023-04-22T07:18:23.225Z,16.55
2023-04-22T07:19:23.237Z,16.88
2023-04-22T07:20:23.198Z,16.82
2023-04-22T07:21:23.210Z,17.02
2023-04-22T07:22:23.177Z,17.62
2023-04-22T07:23:23.169Z,18.29
2023-04-22T07:24:23.155Z,18.57
2023-04-22T07:25:23.146Z,18.53
2023-04-22T07:26:23.157Z,18.34
2023-04-22T07:27:23.154Z,18.23
2023-04-22T07:28:23.124Z,18.21
2023-04-22T07:29:23.100Z,18.25
2023-04-22T07:30:23.097Z,18.41
2023-04-22T07:31:23.099Z,18.83
2023-04-22T07:32:23.107Z,19.20
2023-04-22T07:33:23.059Z,19.67
2023-04-22T07:34:23.044Z,19.78
2023-04-22T07:35:23.061Z,19.65
2023-04-22T07:36:23.271Z,19.95
2023-04-22T07:37:23.018Z,20.33
2023-04-22T07:38:23.017Z,20.35
2023-04-22T07:39:23.000Z,19.71
2023-04-22T07:40:22.978Z,19.45
2023-04-22T07:41:22.972Z,19.49
2023-04-22T07:42:22.957Z,19.58
2023-04-22T07:43:22.947Z,19.42
2023-04-22T07:44:22.936Z,19.07
2023-04-22T07:45:22.928Z,18.74
2023-04-22T07:46:23.110Z,18.42
2023-04-22T07:47:23.000Z,18.19
2023-04-22T07:48:22.905Z,18.35
2023-04-22T07:49:22.886Z,18.59
2023-04-22T07:50:22.869Z,18.50
2023-04-22T07:51:22.887Z,18.36
2023-04-22T07:52:22.843Z,18.16
2023-04-22T07:53:22.843Z,17.96
2023-04-22T07:54:22.834Z,17.96
2023-04-22T07:55:22.819Z,18.13
2023-04-22T07:56:22.799Z,18.16
2023-04-22T07:57:22.793Z,18.09
2023-04-22T07:58:22.785Z,18.32
2023-04-22T07:59:22.774Z,18.78
2023-04-22T08:00:22.783Z,18.91
2023-04-22T08:01:22.836Z,19.09
2023-04-22T08:02:22.847Z,19.28
2023-04-22T08:03:22.964Z,19.65
2023-04-22T08:04:23.138Z,19.83
2023-04-22T08:05:22.755Z,19.85
2023-04-22T08:06:22.701Z,19.62
2023-04-22T08:08:22.673Z,19.52
2023-04-22T08:09:22.687Z,19.24
2023-04-22T08:10:22.780Z,19.25
2023-04-22T08:11:22.668Z,19.32
2023-04-22T08:12:22.665Z,19.28
2023-04-22T08:13:22.625Z,19.25
2023-04-22T08:14:22.611Z,19.43
2023-04-22T08:15:22.602Z,19.49
2023-04-22T08:16:22.718Z,19.89
2023-04-22T08:17:22.573Z,19.70
2023-04-22T08:18:22.561Z,19.70
2023-04-22T08:19:22.551Z,19.61
2023-04-22T08:20:22.646Z,19.60
2023-04-22T08:21:22.530Z,19.95
2023-04-22T08:22:22.537Z,20.04
2023-04-22T08:23:22.539Z,20.25
2023-04-22T08:24:22.493Z,20.40
2023-04-22T08:25:22.484Z,20.38
2023-04-22T08:26:22.470Z,20.37
2023-04-22T08:27:22.465Z,20.48
2023-04-22T08:28:22.446Z,20.91
2023-04-22T08:29:22.438Z,21.37
2023-04-22T08:30:22.525Z,21.55
2023-04-22T08:31:22.476Z,21.55
2023-04-22T08:32:22.456Z,21.46
2023-04-22T08:33:22.425Z,21.51
2023-04-22T08:34:22.411Z,21.27
2023-04-22T08:35:22.383Z,20.91
2023-04-22T08:36:22.376Z,20.94
2023-04-22T08:37:22.359Z,21.51
2023-04-22T08:38:22.338Z,21.77
2023-04-22T08:39:22.383Z,22.05
2023-04-22T08:40:22.461Z,21.73
2023-04-22T08:41:22.320Z,21.98
2023-04-22T08:42:22.296Z,22.21
2023-04-22T08:43:22.313Z,22.38
2023-04-22T08:44:22.295Z,22.15
2023-04-22T08:45:22.516Z,22.35
2023-04-22T08:46:22.257Z,22.66
2023-04-22T08:47:22.346Z,22.97
2023-04-22T08:48:22.233Z,23.09
2023-04-22T08:49:22.229Z,23.11
2023-04-22T08:50:22.224Z,23.25
2023-04-22T08:51:22.202Z,23.68
2023-04-22T08:52:22.197Z,23.92
2023-04-22T08:53:24.375Z,23.25
2023-04-22T08:54:22.166Z,23.03
2023-04-22T08:55:22.178Z,22.96
2023-04-22T08:56:22.177Z,23.22
2023-04-22T08:57:22.137Z,23.69
2023-04-22T08:58:22.129Z,23.93
2023-04-22T08:59:22.122Z,24.33
2023-04-22T09:00:22.103Z,24.05
2023-04-22T09:01:22.139Z,24.36
2023-04-22T09:02:22.094Z,24.15
2023-04-22T09:03:22.140Z,23.96
2023-04-22T09:04:22.174Z,23.90
2023-04-22T09:05:22.054Z,24.09
2023-04-22T09:06:22.044Z,24.33
2023-04-22T09:07:22.036Z,24.56
2023-04-22T09:08:22.023Z,25.20
2023-04-22T09:09:22.014Z,25.30
2023-04-22T09:10:21.996Z,25.17
2023-04-22T09:11:22.021Z,25.83
2023-04-22T09:12:21.974Z,25.89
2023-04-22T09:13:21.971Z,26.06
2023-04-22T09:14:21.960Z,26.11
2023-04-22T09:15:21.938Z,26.16
2023-04-22T09:16:21.953Z,26.24
2023-04-22T09:17:21.935Z,26.44
2023-04-22T09:18:21.957Z,26.23
2023-04-22T09:19:21.955Z,26.39
2023-04-22T09:20:21.943Z,26.60
2023-04-22T09:21:21.880Z,26.28
2023-04-22T09:22:21.898Z,26.11
2023-04-22T09:23:21.858Z,26.32
2023-04-22T09:24:21.850Z,26.49
2023-04-22T09:25:21.838Z,26.75
2023-04-22T09:26:21.857Z,27.12
2023-04-22T09:27:21.843Z,27.21
2023-04-22T09:28:21.809Z,27.20
2023-04-22T09:29:21.807Z,27.08
2023-04-22T09:30:21.784Z,26.53
2023-04-22T09:31:21.822Z,25.96
2023-04-22T09:32:21.802Z,26.13
2023-04-22T09:33:21.754Z,26.19
2023-04-22T09:34:21.744Z,25.86
2023-04-22T09:35:21.736Z,25.96
2023-04-22T09:36:21.722Z,26.34
2023-04-22T09:37:21.707Z,26.76
2023-04-22T09:38:21.701Z,27.18
2023-04-22T09:39:21.696Z,26.41
2023-04-22T09:40:21.682Z,26.32
2023-04-22T09:41:21.676Z,26.78
2023-04-22T09:42:21.656Z,27.21
2023-04-22T09:43:21.689Z,27.12
2023-04-22T09:44:21.662Z,26.98
2023-04-22T09:45:21.632Z,27.13
2023-04-22T09:46:21.772Z,26.76
2023-04-22T09:47:21.608Z,26.65
2023-04-22T09:48:21.595Z,27.05
2023-04-22T09:49:21.594Z,27.15
2023-04-22T09:50:21.585Z,26.88
2023-04-22T09:51:21.563Z,26.61
2023-04-22T09:52:21.561Z,26.49
2023-04-22T09:53:21.550Z,26.87
2023-04-22T09:54:21.539Z,27.03
2023-04-22T09:55:21.544Z,27.18
2023-04-22T09:56:21.553Z,27.06
2023-04-22T09:57:21.503Z,26.94
2023-04-22T09:58:21.518Z,27.16
2023-04-22T09:59:21.507Z,27.24
2023-04-22T10:00:21.471Z,27.35
2023-04-22T10:01:21.478Z,27.46
2023-04-22T10:02:21.532Z,27.31
2023-04-22T10:03:21.483Z,27.30
2023-04-22T10:04:21.574Z,27.13
2023-04-22T10:05:21.416Z,26.96
2023-04-22T10:06:21.408Z,27.21
2023-04-22T10:07:21.422Z,27.13
2023-04-22T10:08:21.401Z,27.25
2023-04-22T10:09:21.397Z,27.40
2023-04-22T10:10:21.366Z,27.58
2023-04-22T10:11:21.362Z,27.71
2023-04-22T10:12:32.787Z,27.80
2023-04-22T10:13:22.543Z,27.81
2023-04-22T10:14:21.322Z,28.03
2023-04-22T10:15:21.333Z,28.17
2023-04-22T10:16:21.334Z,28.17
2023-04-22T10:17:21.371Z,28.35
2023-04-22T10:18:21.285Z,28.54
2023-04-22T10:19:21.306Z,28.14
2023-04-22T10:20:21.286Z,27.40
2023-04-22T10:21:21.267Z,27.66
2023-04-22T10:22:21.292Z,27.78
2023-04-22T10:23:21.339Z,27.77
2023-04-22T10:24:21.390Z,27.71
2023-04-22T10:25:21.334Z,27.63
2023-04-22T10:26:21.293Z,27.63
2023-04-22T10:27:21.333Z,27.65
2023-04-22T10:28:21.327Z,27.13
2023-04-22T10:29:21.175Z,26.96
2023-04-22T10:30:21.450Z,26.59
2023-04-22T10:31:21.278Z,26.38
2023-04-22T10:32:21.158Z,26.56
2023-04-22T10:33:21.170Z,26.59
2023-04-22T10:34:21.109Z,26.66
2023-04-22T10:35:21.109Z,26.87
2023-04-22T10:36:21.084Z,26.93
2023-04-22T10:37:21.085Z,27.24
2023-04-22T10:38:21.075Z,27.13
2023-04-22T10:39:21.055Z,27.61
2023-04-22T10:40:21.055Z,28.21
2023-04-22T10:41:21.033Z,28.30
2023-04-22T10:42:21.112Z,28.57
2023-04-22T10:43:21.211Z,28.64
2023-04-22T10:44:21.003Z,28.64
2023-04-22T10:45:20.993Z,28.91
2023-04-22T10:46:21.096Z,29.21
2023-04-22T10:47:20.995Z,29.14
2023-04-22T10:48:20.965Z,28.72
2023-04-22T10:49:20.953Z,28.70
2023-04-22T10:50:20.940Z,27.46
2023-04-22T10:51:20.930Z,27.43
2023-04-22T10:52:21.020Z,27.55
2023-04-22T10:53:20.914Z,26.87
2023-04-22T10:54:20.919Z,26.54
2023-04-22T10:55:20.892Z,26.64
2023-04-22T10:56:20.888Z,26.54
2023-04-22T10:57:20.874Z,27.21
2023-04-22T10:58:20.861Z,27.93
2023-04-22T10:59:20.846Z,28.57
2023-04-22T11:00:20.840Z,28.72
2023-04-22T11:01:20.858Z,28.62
2023-04-22T11:02:20.886Z,28.27
2023-04-22T11:03:21.094Z,28.27
2023-04-22T11:04:21.018Z,28.43
2023-04-22T11:05:20.809Z,28.48
2023-04-22T11:06:20.780Z,28.70
2023-04-22T11:07:20.856Z,29.29
2023-04-22T11:08:20.785Z,29.67
2023-04-22T11:09:20.763Z,30.00
2023-04-22T11:10:20.744Z,30.46
2023-04-22T11:11:20.751Z,30.60
2023-04-22T11:12:20.714Z,30.21
2023-04-22T11:13:20.727Z,28.87
2023-04-22T11:14:20.707Z,28.08
2023-04-22T11:15:20.684Z,27.69
2023-04-22T11:16:22.288Z,27.50
2023-04-22T11:17:20.710Z,28.06
2023-04-22T11:18:20.655Z,28.42
2023-04-22T11:19:20.713Z,28.88
2023-04-22T11:20:20.650Z,28.82
2023-04-22T11:21:20.623Z,28.55
2023-04-22T11:22:20.613Z,29.03
2023-04-22T11:23:20.600Z,29.10
2023-04-22T11:24:20.600Z,29.05
2023-04-22T11:25:20.583Z,28.72
2023-04-22T11:26:20.573Z,28.24
2023-04-22T11:27:20.557Z,28.33
2023-04-22T11:28:21.588Z,28.35
2023-04-22T11:29:20.576Z,28.57
2023-04-22T11:30:20.532Z,28.43
2023-04-22T11:31:20.643Z,28.94
2023-04-22T11:32:20.503Z,29.02
2023-04-22T11:33:20.509Z,29.02
2023-04-22T11:34:20.527Z,29.37
2023-04-22T11:35:20.494Z,29.36
2023-04-22T11:36:20.468Z,29.23
2023-04-22T11:37:20.457Z,29.49
2023-04-22T11:38:20.464Z,29.73
2023-04-22T11:39:20.447Z,28.80
2023-04-22T11:40:28.999Z,28.70
2023-04-22T11:41:21.444Z,28.58
2023-04-22T11:42:20.413Z,28.45
2023-04-22T11:43:20.394Z,28.50
2023-04-22T11:44:20.384Z,28.17
2023-04-22T11:45:20.391Z,27.91
2023-04-22T11:46:21.846Z,28.30
2023-04-22T11:47:20.424Z,28.73
2023-04-22T11:48:20.354Z,28.48
2023-04-22T11:49:20.350Z,28.48
2023-04-22T11:50:20.320Z,29.03
2023-04-22T11:51:20.331Z,29.33
2023-04-22T11:52:21.293Z,29.86
2023-04-22T11:53:20.291Z,29.70
2023-04-22T11:54:20.282Z,29.73
2023-04-22T11:55:20.263Z,29.94
2023-04-22T11:56:20.263Z,30.21
2023-04-22T11:57:20.249Z,30.44
2023-04-22T11:58:20.238Z,30.51
2023-04-22T11:59:20.230Z,30.48
2023-04-22T12:00:20.330Z,30.19
2023-04-22T12:01:20.200Z,30.07
2023-04-22T12:02:20.256Z,30.23
2023-04-22T12:03:20.381Z,30.21
2023-04-22T12:04:20.191Z,29.95
2023-04-22T12:05:20.199Z,29.76
2023-04-22T12:06:20.152Z,29.36
2023-04-22T12:07:20.166Z,29.85
2023-04-22T12:08:20.136Z,30.16
2023-04-22T12:09:20.117Z,30.51
2023-04-22T12:10:20.115Z,30.37
2023-04-22T12:11:20.112Z,30.18
2023-04-22T12:12:20.133Z,30.16
2023-04-22T12:13:20.089Z,30.56
2023-04-22T12:14:20.073Z,30.26
2023-04-22T12:15:20.058Z,30.42
2023-04-22T12:16:20.250Z,30.51
2023-04-22T12:17:20.112Z,30.73
2023-04-22T12:18:20.041Z,31.03
2023-04-22T12:19:20.022Z,31.18
2023-04-22T12:20:20.028Z,31.03
2023-04-22T12:21:19.999Z,31.01
2023-04-22T12:22:20.216Z,30.70
2023-04-22T12:23:20.066Z,30.34
2023-04-22T12:24:19.996Z,30.44
2023-04-22T12:25:19.954Z,30.19
2023-04-22T12:26:19.964Z,30.30
2023-04-22T12:27:19.937Z,30.45
2023-04-22T12:28:19.928Z,30.38
2023-04-22T12:29:19.914Z,30.38
2023-04-22T12:30:19.910Z,29.91
2023-04-22T12:31:19.921Z,30.06
2023-04-22T12:32:19.887Z,30.18
2023-04-22T12:33:19.891Z,30.22
2023-04-22T12:34:19.880Z,29.78
2023-04-22T12:35:19.868Z,29.03
2023-04-22T12:36:19.856Z,28.74
2023-04-22T12:37:19.844Z,28.62
2023-04-22T12:38:19.835Z,28.36
2023-04-22T12:39:19.946Z,28.08
2023-04-22T12:40:19.811Z,27.98
2023-04-22T12:41:19.814Z,28.17
2023-04-22T12:42:19.787Z,28.27
2023-04-22T12:43:19.775Z,28.32
2023-04-22T12:44:19.781Z,28.60
2023-04-22T12:45:19.748Z,29.33
2023-04-22T12:46:19.850Z,29.79
2023-04-22T12:47:19.886Z,30.03
2023-04-22T12:48:19.762Z,30.29
2023-04-22T12:49:19.721Z,30.23
2023-04-22T12:50:19.704Z,30.34
2023-04-22T12:51:19.692Z,30.28
2023-04-22T12:52:19.700Z,29.52
2023-04-22T12:53:19.672Z,29.27